Terminal Aerodrome Forecast
Issued by NWS Charleston, WV

Current Version | Previous Version | Graphics & Text | Print | Product List | Glossary On
Versions: 1 2 3 4 5 6 7 8 9 10 11 12 13 14 15 16 17 18 19 20 21 22 23 24 25 26
000
FTUS41 KRLX 181732
TAFCRW
TAF
KCRW 181732Z 1818/1918 22012G25KT P6SM BKN040
      TEMPO 1900/1902 4SM SHRA OVC025
     FM190200 20014G24KT P6SM OVC035
      TEMPO 1902/1903 2SM SHRA OVC025
     FM190400 27018G35KT 3SM SHRA OVC015
     FM190500 27015G26KT P6SM OVC015
     FM190800 28013G22KT P6SM SHRA OVC015
     FM190900 28012G20KT P6SM OVC015
     FM191100 28013G22KT P6SM OVC020=

USA.gov is the U.S. government's official web portal to all federal, state and local government web resources and services.